sensor_id;sensor_type;location;lat;lon;timestamp;temperature;humidity
72320;SHT30;60269;52.502;16.732;2023-06-10T00:00:03;16.22;81.57
72320;SHT30;60269;52.502;16.732;2023-06-10T00:03:37;16.20;81.68
72320;SHT30;60269;52.502;16.732;2023-06-10T00:07:09;16.22;82.07
72320;SHT30;60269;52.502;16.732;2023-06-10T00:10:41;16.15;82.46
72320;SHT30;60269;52.502;16.732;2023-06-10T00:14:13;16.16;82.93
72320;SHT30;60269;52.502;16.732;2023-06-10T00:17:46;16.12;83.01
72320;SHT30;60269;52.502;16.732;2023-06-10T00:21:18;16.06;82.93
72320;SHT30;60269;52.502;16.732;2023-06-10T00:24:50;16.04;83.33
72320;SHT30;60269;52.502;16.732;2023-06-10T00:28:23;15.98;83.59
72320;SHT30;60269;52.502;16.732;2023-06-10T00:31:55;15.95;83.60
72320;SHT30;60269;52.502;16.732;2023-06-10T00:35:29;15.85;83.95
72320;SHT30;60269;52.502;16.732;2023-06-10T00:39:02;15.78;84.44
72320;SHT30;60269;52.502;16.732;2023-06-10T00:42:35;15.82;84.36
72320;SHT30;60269;52.502;16.732;2023-06-10T00:46:08;15.74;84.45
72320;SHT30;60269;52.502;16.732;2023-06-10T00:49:40;15.79;84.51
72320;SHT30;60269;52.502;16.732;2023-06-10T00:53:12;15.78;84.33
72320;SHT30;60269;52.502;16.732;2023-06-10T00:56:45;15.72;84.40
72320;SHT30;60269;52.502;16.732;2023-06-10T01:00:18;15.65;84.76
72320;SHT30;60269;52.502;16.732;2023-06-10T01:03:50;15.65;84.63
72320;SHT30;60269;52.502;16.732;2023-06-10T01:07:28;15.59;84.73
72320;SHT30;60269;52.502;16.732;2023-06-10T01:11:04;15.59;84.88
72320;SHT30;60269;52.502;16.732;2023-06-10T01:14:40;15.53;85.07
72320;SHT30;60269;52.502;16.732;2023-06-10T01:18:17;15.53;85.18
72320;SHT30;60269;52.502;16.732;2023-06-10T01:21:50;15.50;85.22
72320;SHT30;60269;52.502;16.732;2023-06-10T01:25:24;15.41;85.49
72320;SHT30;60269;52.502;16.732;2023-06-10T01:29:19;15.38;85.55
72320;SHT30;60269;52.502;16.732;2023-06-10T01:32:54;15.26;86.11
72320;SHT30;60269;52.502;16.732;2023-06-10T01:36:26;15.13;86.58
72320;SHT30;60269;52.502;16.732;2023-06-10T01:40:00;15.03;87.09
72320;SHT30;60269;52.502;16.732;2023-06-10T01:43:37;15.06;86.79
72320;SHT30;60269;52.502;16.732;2023-06-10T01:47:09;15.04;86.99
72320;SHT30;60269;52.502;16.732;2023-06-10T01:50:41;15.03;87.24
72320;SHT30;60269;52.502;16.732;2023-06-10T01:54:13;14.98;86.98
72320;SHT30;60269;52.502;16.732;2023-06-10T01:57:45;15.06;86.99
72320;SHT30;60269;52.502;16.732;2023-06-10T02:01:18;15.11;86.56
72320;SHT30;60269;52.502;16.732;2023-06-10T02:04:50;15.17;86.19
72320;SHT30;60269;52.502;16.732;2023-06-10T02:08:22;15.17;85.90
72320;SHT30;60269;52.502;16.732;2023-06-10T02:11:54;15.14;85.94
72320;SHT30;60269;52.502;16.732;2023-06-10T02:15:26;15.17;85.94
72320;SHT30;60269;52.502;16.732;2023-06-10T02:18:58;15.16;85.52
72320;SHT30;60269;52.502;16.732;2023-06-10T02:22:32;15.23;85.35
72320;SHT30;60269;52.502;16.732;2023-06-10T02:26:04;15.24;85.08
72320;SHT30;60269;52.502;16.732;2023-06-10T02:29:37;15.19;85.07
72320;SHT30;60269;52.502;16.732;2023-06-10T02:33:09;15.20;85.18
72320;SHT30;60269;52.502;16.732;2023-06-10T02:36:45;15.09;85.22
72320;SHT30;60269;52.502;16.732;2023-06-10T02:40:17;15.13;85.39
72320;SHT30;60269;52.502;16.732;2023-06-10T02:43:49;14.95;86.09
72320;SHT30;60269;52.502;16.732;2023-06-10T02:47:21;14.92;86.30
72320;SHT30;60269;52.502;16.732;2023-06-10T02:50:53;14.86;86.45
72320;SHT30;60269;52.502;16.732;2023-06-10T02:54:25;14.78;86.45
72320;SHT30;60269;52.502;16.732;2023-06-10T02:57:58;14.80;86.42
72320;SHT30;60269;52.502;16.732;2023-06-10T03:01:31;14.88;86.28
72320;SHT30;60269;52.502;16.732;2023-06-10T03:05:04;14.86;86.21
72320;SHT30;60269;52.502;16.732;2023-06-10T03:08:38;14.80;86.25
72320;SHT30;60269;52.502;16.732;2023-06-10T03:12:10;14.86;85.98
72320;SHT30;60269;52.502;16.732;2023-06-10T03:15:42;14.93;85.51
72320;SHT30;60269;52.502;16.732;2023-06-10T03:19:14;14.99;85.11
72320;SHT30;60269;52.502;16.732;2023-06-10T03:22:46;15.13;84.79
72320;SHT30;60269;52.502;16.732;2023-06-10T03:26:18;15.24;84.58
72320;SHT30;60269;52.502;16.732;2023-06-10T03:29:53;15.40;84.13
72320;SHT30;60269;52.502;16.732;2023-06-10T03:33:25;15.54;83.33
72320;SHT30;60269;52.502;16.732;2023-06-10T03:36:59;15.64;82.84
72320;SHT30;60269;52.502;16.732;2023-06-10T03:40:31;15.79;82.34
72320;SHT30;60269;52.502;16.732;2023-06-10T03:44:03;15.95;81.80
72320;SHT30;60269;52.502;16.732;2023-06-10T03:47:37;16.09;80.95
72320;SHT30;60269;52.502;16.732;2023-06-10T03:51:09;16.26;79.94
72320;SHT30;60269;52.502;16.732;2023-06-10T03:54:41;16.44;79.36
72320;SHT30;60269;52.502;16.732;2023-06-10T03:58:13;16.64;78.35
72320;SHT30;60269;52.502;16.732;2023-06-10T04:01:46;16.81;77.43
72320;SHT30;60269;52.502;16.732;2023-06-10T04:05:19;17.00;76.55
72320;SHT30;60269;52.502;16.732;2023-06-10T04:08:55;17.19;76.00
72320;SHT30;60269;52.502;16.732;2023-06-10T04:12:28;17.38;74.61
72320;SHT30;60269;52.502;16.732;2023-06-10T04:16:00;17.54;73.63
72320;SHT30;60269;52.502;16.732;2023-06-10T04:19:32;17.74;72.14
72320;SHT30;60269;52.502;16.732;2023-06-10T04:23:04;18.01;70.93
72320;SHT30;60269;52.502;16.732;2023-06-10T04:26:37;18.22;69.73
72320;SHT30;60269;52.502;16.732;2023-06-10T04:30:09;18.32;69.16
72320;SHT30;60269;52.502;16.732;2023-06-10T04:33:41;18.34;68.73
72320;SHT30;60269;52.502;16.732;2023-06-10T04:37:14;18.41;67.78
72320;SHT30;60269;52.502;16.732;2023-06-10T04:40:46;18.65;67.13
72320;SHT30;60269;52.502;16.732;2023-06-10T04:44:19;19.02;65.30
72320;SHT30;60269;52.502;16.732;2023-06-10T04:47:50;19.43;63.67
72320;SHT30;60269;52.502;16.732;2023-06-10T04:51:23;19.78;62.75
72320;SHT30;60269;52.502;16.732;2023-06-10T04:54:57;19.81;62.39
72320;SHT30;60269;52.502;16.732;2023-06-10T04:58:30;19.57;63.27
72320;SHT30;60269;52.502;16.732;2023-06-10T05:02:02;20.03;61.71
72320;SHT30;60269;52.502;16.732;2023-06-10T05:05:34;20.40;60.79
72320;SHT30;60269;52.502;16.732;2023-06-10T05:09:06;20.10;61.40
72320;SHT30;60269;52.502;16.732;2023-06-10T05:12:39;20.24;61.59
72320;SHT30;60269;52.502;16.732;2023-06-10T05:16:12;21.30;58.97
72320;SHT30;60269;52.502;16.732;2023-06-10T05:19:44;21.90;56.88
72320;SHT30;60269;52.502;16.732;2023-06-10T05:23:16;22.09;56.08
72320;SHT30;60269;52.502;16.732;2023-06-10T05:26:49;22.25;55.62
72320;SHT30;60269;52.502;16.732;2023-06-10T05:30:21;22.38;54.99
72320;SHT30;60269;52.502;16.732;2023-06-10T05:33:53;22.25;55.68
72320;SHT30;60269;52.502;16.732;2023-06-10T05:37:25;21.88;56.48
72320;SHT30;60269;52.502;16.732;2023-06-10T05:40:57;21.53;58.13
72320;SHT30;60269;52.502;16.732;2023-06-10T05:44:31;21.12;59.11
72320;SHT30;60269;52.502;16.732;2023-06-10T05:48:04;21.18;58.89
72320;SHT30;60269;52.502;16.732;2023-06-10T05:51:36;21.08;58.96
72320;SHT30;60269;52.502;16.732;2023-06-10T05:55:09;20.79;59.36
72320;SHT30;60269;52.502;16.732;2023-06-10T05:58:42;20.63;59.50
72320;SHT30;60269;52.502;16.732;2023-06-10T06:02:15;20.94;58.57
72320;SHT30;60269;52.502;16.732;2023-06-10T06:05:47;21.36;57.66
72320;SHT30;60269;52.502;16.732;2023-06-10T06:09:19;21.58;56.43
72320;SHT30;60269;52.502;16.732;2023-06-10T06:12:52;22.05;55.26
72320;SHT30;60269;52.502;16.732;2023-06-10T06:16:24;22.59;54.28
72320;SHT30;60269;52.502;16.732;2023-06-10T06:19:56;22.87;52.52
72320;SHT30;60269;52.502;16.732;2023-06-10T06:23:28;22.82;52.35
72320;SHT30;60269;52.502;16.732;2023-06-10T06:27:01;22.66;52.64
72320;SHT30;60269;52.502;16.732;2023-06-10T06:30:33;22.52;52.91
72320;SHT30;60269;52.502;16.732;2023-06-10T06:34:05;23.08;52.13
72320;SHT30;60269;52.502;16.732;2023-06-10T06:37:37;23.38;50.90
72320;SHT30;60269;52.502;16.732;2023-06-10T06:41:09;23.55;50.87
72320;SHT30;60269;52.502;16.732;2023-06-10T06:44:41;25.32;46.22
72320;SHT30;60269;52.502;16.732;2023-06-10T06:48:14;26.11;43.97
72320;SHT30;60269;52.502;16.732;2023-06-10T06:51:46;26.63;42.09
72320;SHT30;60269;52.502;16.732;2023-06-10T06:55:18;26.67;41.70
72320;SHT30;60269;52.502;16.732;2023-06-10T06:58:51;26.84;41.63
72320;SHT30;60269;52.502;16.732;2023-06-10T07:02:22;27.18;40.98
72320;SHT30;60269;52.502;16.732;2023-06-10T07:05:55;27.46;40.53
72320;SHT30;60269;52.502;16.732;2023-06-10T07:09:27;26.87;41.34
72320;SHT30;60269;52.502;16.732;2023-06-10T07:13:00;27.31;40.10
72320;SHT30;60269;52.502;16.732;2023-06-10T07:16:32;26.97;40.12
72320;SHT30;60269;52.502;16.732;2023-06-10T07:20:04;27.55;40.34
72320;SHT30;60269;52.502;16.732;2023-06-10T07:23:37;28.16;38.53
72320;SHT30;60269;52.502;16.732;2023-06-10T07:27:13;27.20;39.88
72320;SHT30;60269;52.502;16.732;2023-06-10T07:30:45;27.28;40.11
72320;SHT30;60269;52.502;16.732;2023-06-10T07:34:17;27.70;39.48
72320;SHT30;60269;52.502;16.732;2023-06-10T07:37:49;28.28;38.86
72320;SHT30;60269;52.502;16.732;2023-06-10T07:41:25;28.55;38.54
72320;SHT30;60269;52.502;16.732;2023-06-10T07:44:57;28.43;37.89
72320;SHT30;60269;52.502;16.732;2023-06-10T07:48:29;28.64;38.02
72320;SHT30;60269;52.502;16.732;2023-06-10T07:52:01;28.98;37.26
72320;SHT30;60269;52.502;16.732;2023-06-10T07:55:34;29.26;36.89
72320;SHT30;60269;52.502;16.732;2023-06-10T07:59:06;29.78;36.24
72320;SHT30;60269;52.502;16.732;2023-06-10T08:02:38;30.47;35.18
72320;SHT30;60269;52.502;16.732;2023-06-10T08:06:11;30.04;35.87
72320;SHT30;60269;52.502;16.732;2023-06-10T08:09:44;29.30;37.04
72320;SHT30;60269;52.502;16.732;2023-06-10T08:13:18;28.91;37.69
72320;SHT30;60269;52.502;16.732;2023-06-10T08:16:50;28.64;38.10
72320;SHT30;60269;52.502;16.732;2023-06-10T08:20:22;29.15;37.65
72320;SHT30;60269;52.502;16.732;2023-06-10T08:23:57;30.11;35.53
72320;SHT30;60269;52.502;16.732;2023-06-10T08:27:29;30.74;35.02
72320;SHT30;60269;52.502;16.732;2023-06-10T08:31:01;31.83;33.06
72320;SHT30;60269;52.502;16.732;2023-06-10T08:34:34;31.86;32.71
72320;SHT30;60269;52.502;16.732;2023-06-10T08:38:09;32.79;31.68
72320;SHT30;60269;52.502;16.732;2023-06-10T08:41:43;33.02;30.94
72320;SHT30;60269;52.502;16.732;2023-06-10T08:45:18;32.55;31.61
72320;SHT30;60269;52.502;16.732;2023-06-10T08:48:54;32.57;31.62
72320;SHT30;60269;52.502;16.732;2023-06-10T08:52:28;32.23;30.99
72320;SHT30;60269;52.502;16.732;2023-06-10T08:56:02;31.42;30.47
72320;SHT30;60269;52.502;16.732;2023-06-10T08:59:36;30.37;31.66
72320;SHT30;60269;52.502;16.732;2023-06-10T09:03:09;30.06;32.05
72320;SHT30;60269;52.502;16.732;2023-06-10T09:06:42;30.24;31.75
72320;SHT30;60269;52.502;16.732;2023-06-10T09:10:15;30.33;32.47
72320;SHT30;60269;52.502;16.732;2023-06-10T09:13:46;31.28;31.97
72320;SHT30;60269;52.502;16.732;2023-06-10T09:17:19;31.79;29.37
72320;SHT30;60269;52.502;16.732;2023-06-10T09:20:51;32.12;30.25
72320;SHT30;60269;52.502;16.732;2023-06-10T09:24:24;32.65;29.70
72320;SHT30;60269;52.502;16.732;2023-06-10T09:27:56;32.95;30.17
72320;SHT30;60269;52.502;16.732;2023-06-10T09:31:29;32.09;30.28
72320;SHT30;60269;52.502;16.732;2023-06-10T09:35:09;32.23;31.26
72320;SHT30;60269;52.502;16.732;2023-06-10T09:38:41;32.40;30.77
72320;SHT30;60269;52.502;16.732;2023-06-10T09:42:17;32.89;29.96
72320;SHT30;60269;52.502;16.732;2023-06-10T09:45:50;32.92;29.29
72320;SHT30;60269;52.502;16.732;2023-06-10T09:49:28;32.92;28.72
72320;SHT30;60269;52.502;16.732;2023-06-10T09:53:00;33.19;29.72
72320;SHT30;60269;52.502;16.732;2023-06-10T09:56:35;33.64;28.19
72320;SHT30;60269;52.502;16.732;2023-06-10T10:00:09;33.33;28.68
72320;SHT30;60269;52.502;16.732;2023-06-10T10:03:49;34.38;28.17
72320;SHT30;60269;52.502;16.732;2023-06-10T10:07:22;34.07;27.71
72320;SHT30;60269;52.502;16.732;2023-06-10T10:10:56;33.87;27.75
72320;SHT30;60269;52.502;16.732;2023-06-10T10:14:31;34.00;26.94
72320;SHT30;60269;52.502;16.732;2023-06-10T10:18:09;34.34;25.27
72320;SHT30;60269;52.502;16.732;2023-06-10T10:21:54;33.88;25.30
72320;SHT30;60269;52.502;16.732;2023-06-10T10:25:40;33.97;26.22
72320;SHT30;60269;52.502;16.732;2023-06-10T10:29:28;33.98;25.63
72320;SHT30;60269;52.502;16.732;2023-06-10T10:36:54;34.49;25.74
72320;SHT30;60269;52.502;16.732;2023-06-10T10:40:31;34.76;23.40
72320;SHT30;60269;52.502;16.732;2023-06-10T10:44:07;34.86;24.56
72320;SHT30;60269;52.502;16.732;2023-06-10T10:47:41;34.82;24.72
72320;SHT30;60269;52.502;16.732;2023-06-10T10:51:15;34.59;24.78
72320;SHT30;60269;52.502;16.732;2023-06-10T10:54:47;34.63;25.46
72320;SHT30;60269;52.502;16.732;2023-06-10T10:58:26;34.53;25.70
72320;SHT30;60269;52.502;16.732;2023-06-10T11:01:58;34.17;25.79
72320;SHT30;60269;52.502;16.732;2023-06-10T11:09:27;34.39;25.31
72320;SHT30;60269;52.502;16.732;2023-06-10T11:13:08;34.02;26.13
72320;SHT30;60269;52.502;16.732;2023-06-10T11:16:41;34.31;26.08
72320;SHT30;60269;52.502;16.732;2023-06-10T11:24:20;34.65;25.96
72320;SHT30;60269;52.502;16.732;2023-06-10T11:27:53;34.62;25.55
72320;SHT30;60269;52.502;16.732;2023-06-10T11:35:07;34.72;25.37
72320;SHT30;60269;52.502;16.732;2023-06-10T11:38:43;35.54;24.59
72320;SHT30;60269;52.502;16.732;2023-06-10T11:42:16;35.93;23.68
72320;SHT30;60269;52.502;16.732;2023-06-10T11:45:54;35.88;23.10
72320;SHT30;60269;52.502;16.732;2023-06-10T11:49:27;35.70;22.81
72320;SHT30;60269;52.502;16.732;2023-06-10T11:53:00;35.78;22.24
72320;SHT30;60269;52.502;16.732;2023-06-10T11:56:33;35.70;22.69
72320;SHT30;60269;52.502;16.732;2023-06-10T12:00:06;35.86;22.67
72320;SHT30;60269;52.502;16.732;2023-06-10T12:03:39;36.12;21.41
72320;SHT30;60269;52.502;16.732;2023-06-10T12:07:20;36.00;21.84
72320;SHT30;60269;52.502;16.732;2023-06-10T12:10:56;36.09;21.86
72320;SHT30;60269;52.502;16.732;2023-06-10T12:14:59;36.12;21.73
72320;SHT30;60269;52.502;16.732;2023-06-10T12:18:32;36.85;21.30
72320;SHT30;60269;52.502;16.732;2023-06-10T12:22:05;37.41;20.27
72320;SHT30;60269;52.502;16.732;2023-06-10T12:25:38;37.02;20.64
72320;SHT30;60269;52.502;16.732;2023-06-10T12:29:24;36.92;20.98
72320;SHT30;60269;52.502;16.732;2023-06-10T12:32:56;36.62;21.32
72320;SHT30;60269;52.502;16.732;2023-06-10T12:36:29;35.54;22.17
72320;SHT30;60269;52.502;16.732;2023-06-10T12:40:04;35.70;22.29
72320;SHT30;60269;52.502;16.732;2023-06-10T12:43:43;36.08;22.18
72320;SHT30;60269;52.502;16.732;2023-06-10T12:47:42;36.39;21.65
72320;SHT30;60269;52.502;16.732;2023-06-10T12:51:16;36.57;21.27
72320;SHT30;60269;52.502;16.732;2023-06-10T12:54:48;36.57;21.30
72320;SHT30;60269;52.502;16.732;2023-06-10T12:58:21;35.65;21.56
72320;SHT30;60269;52.502;16.732;2023-06-10T13:01:54;35.64;21.61
72320;SHT30;60269;52.502;16.732;2023-06-10T13:05:27;36.15;21.08
72320;SHT30;60269;52.502;16.732;2023-06-10T13:09:00;35.86;20.97
72320;SHT30;60269;52.502;16.732;2023-06-10T13:12:32;36.05;21.10
72320;SHT30;60269;52.502;16.732;2023-06-10T13:16:18;36.78;20.48
72320;SHT30;60269;52.502;16.732;2023-06-10T13:19:50;36.36;20.07
72320;SHT30;60269;52.502;16.732;2023-06-10T13:23:22;35.85;21.00
72320;SHT30;60269;52.502;16.732;2023-06-10T13:26:54;36.13;20.74
72320;SHT30;60269;52.502;16.732;2023-06-10T13:30:28;36.74;20.30
72320;SHT30;60269;52.502;16.732;2023-06-10T13:34:00;36.73;20.07
72320;SHT30;60269;52.502;16.732;2023-06-10T13:37:32;36.64;20.00
72320;SHT30;60269;52.502;16.732;2023-06-10T13:41:05;36.50;20.33
72320;SHT30;60269;52.502;16.732;2023-06-10T13:44:38;36.87;19.82
72320;SHT30;60269;52.502;16.732;2023-06-10T13:48:10;36.58;19.73
72320;SHT30;60269;52.502;16.732;2023-06-10T13:51:44;36.81;20.11
72320;SHT30;60269;52.502;16.732;2023-06-10T13:55:18;36.73;20.77
72320;SHT30;60269;52.502;16.732;2023-06-10T13:58:51;35.26;20.85
72320;SHT30;60269;52.502;16.732;2023-06-10T14:02:24;34.45;22.20
72320;SHT30;60269;52.502;16.732;2023-06-10T14:05:57;34.27;21.79
72320;SHT30;60269;52.502;16.732;2023-06-10T14:09:29;34.42;22.12
72320;SHT30;60269;52.502;16.732;2023-06-10T14:13:01;35.21;22.06
72320;SHT30;60269;52.502;16.732;2023-06-10T14:16:35;34.89;21.34
72320;SHT30;60269;52.502;16.732;2023-06-10T14:20:07;34.93;21.58
72320;SHT30;60269;52.502;16.732;2023-06-10T14:23:41;35.20;21.36
72320;SHT30;60269;52.502;16.732;2023-06-10T14:27:16;35.15;20.89
72320;SHT30;60269;52.502;16.732;2023-06-10T14:30:49;35.33;19.92
72320;SHT30;60269;52.502;16.732;2023-06-10T14:34:22;35.26;20.07
72320;SHT30;60269;52.502;16.732;2023-06-10T14:37:57;34.32;19.87
72320;SHT30;60269;52.502;16.732;2023-06-10T14:41:29;34.00;20.94
72320;SHT30;60269;52.502;16.732;2023-06-10T14:45:01;33.56;20.85
72320;SHT30;60269;52.502;16.732;2023-06-10T14:48:33;33.49;20.36
72320;SHT30;60269;52.502;16.732;2023-06-10T14:52:05;33.56;20.28
72320;SHT30;60269;52.502;16.732;2023-06-10T14:55:37;33.67;20.37
72320;SHT30;60269;52.502;16.732;2023-06-10T14:59:10;34.35;20.01
72320;SHT30;60269;52.502;16.732;2023-06-10T15:02:42;34.18;20.06
72320;SHT30;60269;52.502;16.732;2023-06-10T15:06:14;34.35;19.88
72320;SHT30;60269;52.502;16.732;2023-06-10T15:09:51;33.76;20.21
72320;SHT30;60269;52.502;16.732;2023-06-10T15:13:23;33.61;19.78
72320;SHT30;60269;52.502;16.732;2023-06-10T15:16:55;33.84;19.93
72320;SHT30;60269;52.502;16.732;2023-06-10T15:20:30;34.18;20.13
72320;SHT30;60269;52.502;16.732;2023-06-10T15:24:02;34.67;19.79
72320;SHT30;60269;52.502;16.732;2023-06-10T15:27:34;33.90;19.59
72320;SHT30;60269;52.502;16.732;2023-06-10T15:31:06;33.77;19.65
72320;SHT30;60269;52.502;16.732;2023-06-10T15:34:40;33.69;19.68
72320;SHT30;60269;52.502;16.732;2023-06-10T15:38:12;33.76;19.84
72320;SHT30;60269;52.502;16.732;2023-06-10T15:41:44;33.37;19.55
72320;SHT30;60269;52.502;16.732;2023-06-10T15:45:16;33.67;19.51
72320;SHT30;60269;52.502;16.732;2023-06-10T15:48:49;32.99;19.36
72320;SHT30;60269;52.502;16.732;2023-06-10T15:52:21;32.51;19.55
72320;SHT30;60269;52.502;16.732;2023-06-10T15:55:53;32.43;19.29
72320;SHT30;60269;52.502;16.732;2023-06-10T15:59:30;32.50;19.07
72320;SHT30;60269;52.502;16.732;2023-06-10T16:03:02;32.41;19.14
72320;SHT30;60269;52.502;16.732;2023-06-10T16:06:35;32.26;19.26
72320;SHT30;60269;52.502;16.732;2023-06-10T16:10:08;32.67;19.21
72320;SHT30;60269;52.502;16.732;2023-06-10T16:13:40;32.88;17.69
72320;SHT30;60269;52.502;16.732;2023-06-10T16:17:49;32.48;17.82
72320;SHT30;60269;52.502;16.732;2023-06-10T16:37:15;31.15;18.53
72320;SHT30;60269;52.502;16.732;2023-06-10T16:41:29;31.38;18.32
72320;SHT30;60269;52.502;16.732;2023-06-10T16:45:02;31.61;18.31
72320;SHT30;60269;52.502;16.732;2023-06-10T16:48:34;31.38;19.32
72320;SHT30;60269;52.502;16.732;2023-06-10T16:52:07;31.11;19.48
72320;SHT30;60269;52.502;16.732;2023-06-10T16:55:40;31.24;19.37
72320;SHT30;60269;52.502;16.732;2023-06-10T16:59:13;31.08;19.20
72320;SHT30;60269;52.502;16.732;2023-06-10T17:02:47;30.72;19.27
72320;SHT30;60269;52.502;16.732;2023-06-10T17:06:20;30.42;19.90
72320;SHT30;60269;52.502;16.732;2023-06-10T17:09:52;30.64;20.20
72320;SHT30;60269;52.502;16.732;2023-06-10T17:13:24;30.09;20.53
72320;SHT30;60269;52.502;16.732;2023-06-10T17:16:57;30.00;20.94
72320;SHT30;60269;52.502;16.732;2023-06-10T17:20:30;29.64;21.17
72320;SHT30;60269;52.502;16.732;2023-06-10T17:24:03;29.67;21.62
72320;SHT30;60269;52.502;16.732;2023-06-10T17:27:35;29.53;21.85
72320;SHT30;60269;52.502;16.732;2023-06-10T17:31:08;29.64;21.40
72320;SHT30;60269;52.502;16.732;2023-06-10T17:34:40;29.27;21.45
72320;SHT30;60269;52.502;16.732;2023-06-10T17:38:12;28.88;21.83
72320;SHT30;60269;52.502;16.732;2023-06-10T17:41:45;28.50;22.20
72320;SHT30;60269;52.502;16.732;2023-06-10T17:45:17;28.33;22.29
72320;SHT30;60269;52.502;16.732;2023-06-10T17:48:49;28.14;22.51
72320;SHT30;60269;52.502;16.732;2023-06-10T17:52:22;27.72;22.30
72320;SHT30;60269;52.502;16.732;2023-06-10T17:55:54;27.48;22.26
72320;SHT30;60269;52.502;16.732;2023-06-10T17:59:29;26.98;23.04
72320;SHT30;60269;52.502;16.732;2023-06-10T18:03:01;26.82;23.42
72320;SHT30;60269;52.502;16.732;2023-06-10T18:06:33;26.52;24.05
72320;SHT30;60269;52.502;16.732;2023-06-10T18:10:06;26.29;24.44
72320;SHT30;60269;52.502;16.732;2023-06-10T18:13:38;25.98;24.95
72320;SHT30;60269;52.502;16.732;2023-06-10T18:17:10;25.53;25.46
72320;SHT30;60269;52.502;16.732;2023-06-10T18:20:42;25.19;25.81
72320;SHT30;60269;52.502;16.732;2023-06-10T18:24:15;24.81;26.45
72320;SHT30;60269;52.502;16.732;2023-06-10T18:27:47;23.99;27.59
72320;SHT30;60269;52.502;16.732;2023-06-10T18:31:19;23.04;28.89
72320;SHT30;60269;52.502;16.732;2023-06-10T18:34:52;22.34;30.31
72320;SHT30;60269;52.502;16.732;2023-06-10T18:38:24;21.85;31.26
72320;SHT30;60269;52.502;16.732;2023-06-10T18:41:56;21.53;31.86
72320;SHT30;60269;52.502;16.732;2023-06-10T18:45:29;21.19;32.58
72320;SHT30;60269;52.502;16.732;2023-06-10T18:49:01;20.99;32.80
72320;SHT30;60269;52.502;16.732;2023-06-10T18:52:33;20.72;33.24
72320;SHT30;60269;52.502;16.732;2023-06-10T18:56:05;20.51;33.78
72320;SHT30;60269;52.502;16.732;2023-06-10T18:59:37;20.13;34.54
72320;SHT30;60269;52.502;16.732;2023-06-10T19:03:09;19.87;35.12
72320;SHT30;60269;52.502;16.732;2023-06-10T19:06:41;19.62;35.51
72320;SHT30;60269;52.502;16.732;2023-06-10T19:10:13;19.41;36.04
72320;SHT30;60269;52.502;16.732;2023-06-10T19:13:45;19.23;36.24
72320;SHT30;60269;52.502;16.732;2023-06-10T19:17:18;19.03;36.62
72320;SHT30;60269;52.502;16.732;2023-06-10T19:20:51;18.86;37.43
72320;SHT30;60269;52.502;16.732;2023-06-10T19:24:23;18.73;37.76
72320;SHT30;60269;52.502;16.732;2023-06-10T19:27:55;18.56;38.24
72320;SHT30;60269;52.502;16.732;2023-06-10T19:31:27;18.34;39.36
72320;SHT30;60269;52.502;16.732;2023-06-10T19:35:00;18.15;40.14
72320;SHT30;60269;52.502;16.732;2023-06-10T19:38:32;17.90;41.20
72320;SHT30;60269;52.502;16.732;2023-06-10T19:42:05;17.81;42.99
72320;SHT30;60269;52.502;16.732;2023-06-10T19:45:42;17.80;43.96
72320;SHT30;60269;52.502;16.732;2023-06-10T19:49:15;17.74;45.19
72320;SHT30;60269;52.502;16.732;2023-06-10T19:52:47;17.65;46.05
72320;SHT30;60269;52.502;16.732;2023-06-10T19:56:19;17.54;46.91
72320;SHT30;60269;52.502;16.732;2023-06-10T19:59:53;17.45;47.68
72320;SHT30;60269;52.502;16.732;2023-06-10T20:03:26;17.28;48.80
72320;SHT30;60269;52.502;16.732;2023-06-10T20:06:58;17.16;49.49
72320;SHT30;60269;52.502;16.732;2023-06-10T20:10:31;17.01;50.33
72320;SHT30;60269;52.502;16.732;2023-06-10T20:14:04;16.94;51.17
72320;SHT30;60269;52.502;16.732;2023-06-10T20:17:36;16.81;52.07
72320;SHT30;60269;52.502;16.732;2023-06-10T20:21:08;16.65;52.38
72320;SHT30;60269;52.502;16.732;2023-06-10T20:24:40;16.63;53.00
72320;SHT30;60269;52.502;16.732;2023-06-10T20:28:12;16.53;53.68
72320;SHT30;60269;52.502;16.732;2023-06-10T20:31:44;16.46;53.95
72320;SHT30;60269;52.502;16.732;2023-06-10T20:35:18;16.34;54.52
72320;SHT30;60269;52.502;16.732;2023-06-10T20:38:50;16.22;55.22
72320;SHT30;60269;52.502;16.732;2023-06-10T20:42:23;16.15;55.61
72320;SHT30;60269;52.502;16.732;2023-06-10T20:45:58;16.15;55.54
72320;SHT30;60269;52.502;16.732;2023-06-10T20:49:30;16.08;55.26
72320;SHT30;60269;52.502;16.732;2023-06-10T20:53:02;15.95;55.54
72320;SHT30;60269;52.502;16.732;2023-06-10T20:56:36;15.86;55.95
72320;SHT30;60269;52.502;16.732;2023-06-10T21:00:13;15.77;56.13
72320;SHT30;60269;52.502;16.732;2023-06-10T21:03:46;15.65;56.42
72320;SHT30;60269;52.502;16.732;2023-06-10T21:07:20;15.55;56.99
72320;SHT30;60269;52.502;16.732;2023-06-10T21:10:54;15.40;57.42
72320;SHT30;60269;52.502;16.732;2023-06-10T21:14:27;15.31;57.35
72320;SHT30;60269;52.502;16.732;2023-06-10T21:18:00;15.34;57.42
72320;SHT30;60269;52.502;16.732;2023-06-10T21:21:33;15.26;57.71
72320;SHT30;60269;52.502;16.732;2023-06-10T21:25:05;15.14;57.91
72320;SHT30;60269;52.502;16.732;2023-06-10T21:28:39;15.11;58.15
72320;SHT30;60269;52.502;16.732;2023-06-10T21:32:13;15.10;58.08
72320;SHT30;60269;52.502;16.732;2023-06-10T21:35:47;14.96;58.69
72320;SHT30;60269;52.502;16.732;2023-06-10T21:39:19;14.86;58.95
72320;SHT30;60269;52.502;16.732;2023-06-10T21:42:51;14.80;59.48
72320;SHT30;60269;52.502;16.732;2023-06-10T21:46:24;14.69;59.91
72320;SHT30;60269;52.502;16.732;2023-06-10T21:49:58;14.62;60.02
72320;SHT30;60269;52.502;16.732;2023-06-10T21:53:30;14.52;60.57
72320;SHT30;60269;52.502;16.732;2023-06-10T21:57:02;14.44;61.13
72320;SHT30;60269;52.502;16.732;2023-06-10T22:00:37;14.25;61.63
72320;SHT30;60269;52.502;16.732;2023-06-10T22:04:10;14.16;61.98
72320;SHT30;60269;52.502;16.732;2023-06-10T22:07:43;14.03;62.45
72320;SHT30;60269;52.502;16.732;2023-06-10T22:11:15;14.01;62.78
72320;SHT30;60269;52.502;16.732;2023-06-10T22:14:47;14.00;62.84
72320;SHT30;60269;52.502;16.732;2023-06-10T22:18:19;14.00;62.83
72320;SHT30;60269;52.502;16.732;2023-06-10T22:21:51;14.06;62.78
72320;SHT30;60269;52.502;16.732;2023-06-10T22:25:23;13.96;63.39
72320;SHT30;60269;52.502;16.732;2023-06-10T22:28:55;13.84;63.89
72320;SHT30;60269;52.502;16.732;2023-06-10T22:32:30;13.80;64.05
72320;SHT30;60269;52.502;16.732;2023-06-10T22:36:03;13.74;64.27